createdAt,value
2022-09-05T00:00:23.561Z,13.38
2022-09-05T00:03:22.802Z,13.39
2022-09-05T00:06:14.210Z,13.32
2022-09-05T00:09:10.505Z,13.21
2022-09-05T00:11:52.474Z,13.13
2022-09-05T00:15:16.219Z,13.13
2022-09-05T00:19:05.218Z,13.16
2022-09-05T00:24:25.895Z,13.14
2022-09-05T00:24:54.689Z,13.15
2022-09-05T00:27:51.177Z,13.16
2022-09-05T00:31:06.520Z,13.18
2022-09-05T00:33:35.832Z,13.20
2022-09-05T00:36:14.815Z,13.21
2022-09-05T00:39:21.509Z,12.85
2022-09-05T00:41:52.363Z,12.55
2022-09-05T00:44:24.441Z,12.42
2022-09-05T00:47:04.015Z,12.50
2022-09-05T00:50:14.715Z,12.66
2022-09-05T00:53:06.300Z,12.74
2022-09-05T00:55:45.133Z,12.78
2022-09-05T00:58:58.419Z,12.94
2022-09-05T01:01:31.534Z,12.97
2022-09-05T01:04:07.758Z,12.91
2022-09-05T01:06:46.569Z,12.58
2022-09-05T01:09:33.979Z,12.41
2022-09-05T01:12:20.812Z,12.09
2022-09-05T01:15:03.475Z,12.20
2022-09-05T01:18:02.405Z,12.27
2022-09-05T01:20:44.177Z,12.37
2022-09-05T01:23:45.816Z,12.39
2022-09-05T01:26:28.736Z,12.41
2022-09-05T01:29:16.801Z,12.48
2022-09-05T01:32:28.170Z,12.51
2022-09-05T01:35:00.397Z,12.51
2022-09-05T01:38:05.852Z,12.56
2022-09-05T01:41:18.744Z,12.51
2022-09-05T01:43:55.678Z,12.50
2022-09-05T01:47:04.846Z,12.37
2022-09-05T01:49:53.887Z,12.20
2022-09-05T01:52:23.441Z,12.26
2022-09-05T01:55:12.467Z,12.35
2022-09-05T01:57:54.402Z,12.28
2022-09-05T02:00:33.057Z,12.39
2022-09-05T02:03:42.602Z,12.43
2022-09-05T02:06:37.787Z,12.44
2022-09-05T02:09:43.485Z,12.46
2022-09-05T02:13:02.452Z,12.44
2022-09-05T02:16:00.145Z,12.48
2022-09-05T02:18:37.725Z,12.52
2022-09-05T02:21:12.412Z,12.48
2022-09-05T02:24:02.485Z,12.51
2022-09-05T02:26:40.172Z,12.53
2022-09-05T02:29:38.013Z,12.50
2022-09-05T02:32:22.188Z,12.44
2022-09-05T02:35:03.647Z,12.38
2022-09-05T02:38:33.108Z,12.36
2022-09-05T02:45:10.847Z,12.47
2022-09-05T02:45:17.332Z,12.43
2022-09-05T02:47:19.036Z,12.51
2022-09-05T02:53:15.958Z,12.58
2022-09-05T02:57:26.693Z,12.65
2022-09-05T02:57:43.491Z,12.68
2022-09-05T02:59:42.323Z,12.79
2022-09-05T03:02:34.306Z,12.82
2022-09-05T03:05:19.590Z,12.81
2022-09-05T03:08:12.062Z,12.84
2022-09-05T03:11:02.563Z,12.82
2022-09-05T03:13:59.841Z,12.85
2022-09-05T03:16:47.905Z,12.99
2022-09-05T03:19:57.229Z,12.75
2022-09-05T03:22:48.210Z,12.64
2022-09-05T03:25:30.328Z,12.66
2022-09-05T03:28:40.252Z,12.66
2022-09-05T03:31:22.803Z,12.64
2022-09-05T03:34:28.372Z,12.73
2022-09-05T03:37:43.052Z,12.62
2022-09-05T03:40:48.818Z,12.48
2022-09-05T03:43:53.700Z,12.29
2022-09-05T03:46:39.104Z,12.27
2022-09-05T03:52:59.763Z,12.18
2022-09-05T03:57:14.833Z,12.27
2022-09-05T03:57:15.328Z,12.31
2022-09-05T03:59:08.698Z,12.34
2022-09-05T04:03:02.563Z,12.36
2022-09-05T04:08:18.857Z,12.35
2022-09-05T04:08:23.892Z,12.39
2022-09-05T04:10:59.775Z,12.48
2022-09-05T04:13:50.641Z,12.41
2022-09-05T04:16:45.206Z,12.47
2022-09-05T04:19:24.563Z,12.45
2022-09-05T04:22:06.494Z,12.42
2022-09-05T04:25:05.400Z,12.44
2022-09-05T04:28:14.684Z,12.43
2022-09-05T04:31:10.875Z,12.52
2022-09-05T04:33:59.814Z,12.52
2022-09-05T04:36:59.072Z,12.58
2022-09-05T04:39:27.960Z,12.70
2022-09-05T04:42:33.538Z,12.75
2022-09-05T04:45:11.581Z,12.79
2022-09-05T04:47:44.943Z,12.83
2022-09-05T04:50:21.371Z,12.92
2022-09-05T04:53:37.779Z,13.03
2022-09-05T04:56:13.534Z,13.14
2022-09-05T05:00:51.375Z,13.19
2022-09-05T05:06:04.194Z,13.32
2022-09-05T05:06:08.646Z,13.39
2022-09-05T05:07:54.213Z,13.51
2022-09-05T05:13:10.676Z,13.60
2022-09-05T05:18:01.113Z,13.68
2022-09-05T05:18:12.193Z,13.80
2022-09-05T05:19:59.437Z,13.90
2022-09-05T05:22:38.225Z,14.01
2022-09-05T05:25:13.197Z,14.18
2022-09-05T05:27:56.083Z,14.27
2022-09-05T05:30:31.872Z,14.35
2022-09-05T05:33:09.482Z,14.41
2022-09-05T05:35:48.176Z,14.51
2022-09-05T05:38:34.481Z,14.63
2022-09-05T05:41:40.116Z,14.72
2022-09-05T05:44:19.912Z,14.69
2022-09-05T05:47:06.490Z,14.89
2022-09-05T05:49:59.381Z,15.02
2022-09-05T05:53:10.644Z,15.12
2022-09-05T05:56:39.304Z,15.31
2022-09-05T05:59:56.655Z,15.46
2022-09-05T06:03:25.117Z,15.56
2022-09-05T06:06:34.846Z,15.69
2022-09-05T06:14:53.093Z,15.74
2022-09-05T06:14:59.829Z,15.81
2022-09-05T06:16:06.671Z,15.80
2022-09-05T06:19:22.131Z,15.88
2022-09-05T06:22:43.143Z,15.98
2022-09-05T06:26:06.346Z,16.08
2022-09-05T06:28:56.004Z,16.14
2022-09-05T06:32:01.847Z,16.33
2022-09-05T06:34:48.957Z,16.38
2022-09-05T06:37:29.834Z,16.41
2022-09-05T06:40:32.052Z,16.55
2022-09-05T06:43:10.378Z,16.62
2022-09-05T06:46:15.605Z,16.73
2022-09-05T06:49:29.763Z,16.86
2022-09-05T06:52:27.789Z,16.86
2022-09-05T06:55:14.931Z,16.98
2022-09-05T06:58:03.030Z,16.99
2022-09-05T07:00:50.928Z,17.04
2022-09-05T07:03:37.492Z,17.05
2022-09-05T07:06:19.501Z,17.21
2022-09-05T07:09:20.638Z,17.32
2022-09-05T07:11:52.169Z,17.42
2022-09-05T07:14:26.883Z,17.53
2022-09-05T07:17:20.554Z,17.63
2022-09-05T07:19:57.300Z,17.78
2022-09-05T07:22:48.671Z,17.87
2022-09-05T07:25:30.363Z,18.04
2022-09-05T07:28:29.248Z,18.16
2022-09-05T07:31:10.801Z,18.29
2022-09-05T07:33:49.946Z,18.27
2022-09-05T07:36:23.912Z,18.41
2022-09-05T07:39:12.287Z,18.56
2022-09-05T07:41:53.792Z,18.67
2022-09-05T07:44:44.419Z,18.84
2022-09-05T07:47:40.382Z,18.84
2022-09-05T07:51:38.853Z,19.00
2022-09-05T07:56:51.466Z,19.23
2022-09-05T07:56:52.924Z,19.13
2022-09-05T07:59:08.735Z,19.35
2022-09-05T08:01:42.835Z,19.41
2022-09-05T08:04:24.326Z,19.58
2022-09-05T08:07:46.011Z,19.67
2022-09-05T08:10:31.065Z,19.83
2022-09-05T08:13:23.704Z,19.93
2022-09-05T08:16:10.574Z,20.01
2022-09-05T08:19:10.877Z,20.02
2022-09-05T08:21:44.237Z,20.19
2022-09-05T08:24:27.178Z,20.30
2022-09-05T08:27:20.914Z,20.47
2022-09-05T08:30:24.464Z,20.67
2022-09-05T08:33:24.820Z,20.84
2022-09-05T08:36:01.569Z,20.96
2022-09-05T08:38:40.700Z,21.09
2022-09-05T08:41:17.807Z,21.28
2022-09-05T08:46:36.739Z,21.29
2022-09-05T08:47:12.756Z,21.41
2022-09-05T08:49:46.213Z,21.42
2022-09-05T08:52:42.825Z,21.61
2022-09-05T08:55:31.379Z,21.66
2022-09-05T08:58:26.193Z,21.54
2022-09-05T09:01:08.316Z,21.79
2022-09-05T09:04:26.747Z,21.94
2022-09-05T09:07:50.673Z,22.13
2022-09-05T09:10:45.574Z,22.28
2022-09-05T09:13:34.440Z,22.50
2022-09-05T09:16:42.181Z,22.43
2022-09-05T09:19:49.077Z,22.67
2022-09-05T09:22:20.439Z,22.91
2022-09-05T09:25:15.146Z,23.18
2022-09-05T09:28:47.986Z,23.41
2022-09-05T09:31:45.043Z,23.71
2022-09-05T09:34:27.523Z,24.12
2022-09-05T09:37:48.228Z,24.10
2022-09-05T09:40:19.794Z,24.21
2022-09-05T09:43:14.676Z,24.52
2022-09-05T09:46:00.267Z,23.97
2022-09-05T09:48:55.324Z,24.08
2022-09-05T09:51:46.320Z,24.65
2022-09-05T09:54:54.692Z,24.08
2022-09-05T09:58:01.490Z,23.94
2022-09-05T10:00:44.139Z,24.38
2022-09-05T10:06:36.559Z,24.66
2022-09-05T10:10:46.527Z,24.61
2022-09-05T10:10:53.065Z,25.00
2022-09-05T10:13:08.673Z,25.75
2022-09-05T10:16:06.083Z,25.84
2022-09-05T10:18:37.473Z,25.95
2022-09-05T10:21:26.289Z,26.38
2022-09-05T10:24:18.334Z,27.13
2022-09-05T10:26:57.919Z,26.84
2022-09-05T10:29:53.076Z,26.53
2022-09-05T10:35:18.208Z,26.65
2022-09-05T10:35:52.305Z,26.84
2022-09-05T10:38:32.798Z,27.29
2022-09-05T10:41:21.310Z,27.81
2022-09-05T10:44:02.536Z,27.74
2022-09-05T10:46:54.118Z,25.78
2022-09-05T10:49:27.327Z,26.04
2022-09-05T10:52:27.333Z,26.38
2022-09-05T10:55:33.243Z,26.58
2022-09-05T10:59:19.102Z,26.94
2022-09-05T11:02:27.530Z,27.82
2022-09-05T11:04:49.758Z,28.41
2022-09-05T11:07:36.647Z,28.03
2022-09-05T11:10:18.543Z,27.44
2022-09-05T11:13:04.902Z,27.15
2022-09-05T11:16:04.265Z,26.86
2022-09-05T11:18:59.970Z,27.57
2022-09-05T11:21:49.809Z,28.54
2022-09-05T11:24:38.077Z,29.49
2022-09-05T11:27:24.638Z,29.67
2022-09-05T11:30:02.990Z,29.93
2022-09-05T11:39:52.354Z,30.40
2022-09-05T11:39:54.295Z,28.68
2022-09-05T11:40:09.704Z,28.72
2022-09-05T11:42:56.373Z,28.44
2022-09-05T11:45:41.689Z,28.38
2022-09-05T11:48:44.601Z,28.32
2022-09-05T11:51:59.851Z,28.86
2022-09-05T11:55:03.450Z,28.26
2022-09-05T11:57:38.953Z,27.85
2022-09-05T12:00:33.511Z,28.59
2022-09-05T12:03:41.460Z,30.32
2022-09-05T12:09:36.935Z,31.90
2022-09-05T12:12:41.462Z,31.87
2022-09-05T12:15:34.962Z,30.29
2022-09-05T12:18:03.193Z,29.98
2022-09-05T12:20:54.911Z,30.84
2022-09-05T12:25:15.127Z,30.95
2022-09-05T12:27:36.637Z,30.68
2022-09-05T12:30:06.223Z,30.41
2022-09-05T12:35:46.917Z,30.14
2022-09-05T12:36:11.175Z,29.90
2022-09-05T12:41:40.967Z,31.72
2022-09-05T12:42:07.458Z,29.50
2022-09-05T12:42:19.356Z,29.42
2022-09-05T12:45:12.609Z,29.38
2022-09-05T12:48:04.102Z,29.18
2022-09-05T12:51:00.771Z,29.08
2022-09-05T12:53:41.405Z,28.92
2022-09-05T12:57:27.719Z,28.89
2022-09-05T13:03:02.255Z,28.97
2022-09-05T13:03:15.336Z,29.48
2022-09-05T13:05:19.463Z,30.38
2022-09-05T13:08:12.962Z,31.41
2022-09-05T13:14:47.836Z,32.28
2022-09-05T13:15:02.617Z,33.25
2022-09-05T13:17:05.897Z,33.87
2022-09-05T13:19:43.693Z,34.50
2022-09-05T13:22:15.041Z,34.65
2022-09-05T13:24:47.335Z,34.56
2022-09-05T13:27:32.317Z,34.05
2022-09-05T13:33:26.807Z,33.99
2022-09-05T13:38:03.242Z,34.71
2022-09-05T13:38:17.351Z,34.60
2022-09-05T13:39:28.529Z,34.90
2022-09-05T13:42:03.759Z,34.35
2022-09-05T13:44:38.893Z,34.08
2022-09-05T13:47:30.262Z,34.50
2022-09-05T13:50:04.955Z,34.97
2022-09-05T13:52:49.569Z,35.13
2022-09-05T13:55:27.466Z,35.10
2022-09-05T13:58:09.883Z,34.98
2022-09-05T14:00:41.808Z,34.39
2022-09-05T14:03:45.783Z,33.63
2022-09-05T14:06:49.241Z,32.91
2022-09-05T14:09:35.500Z,32.64
2022-09-05T14:12:27.874Z,33.10
2022-09-05T14:15:14.047Z,33.62
2022-09-05T14:18:22.207Z,33.95
2022-09-05T14:21:17.435Z,33.86
2022-09-05T14:24:03.254Z,33.37
2022-09-05T14:26:47.297Z,33.54
2022-09-05T14:29:27.417Z,33.50
2022-09-05T14:37:37.247Z,33.34
2022-09-05T14:37:52.009Z,33.30
2022-09-05T14:38:57.714Z,33.55
2022-09-05T14:42:09.356Z,33.69
2022-09-05T14:45:11.343Z,33.89
2022-09-05T14:48:05.294Z,33.45
2022-09-05T14:50:59.645Z,33.61
2022-09-05T14:58:13.065Z,33.11
2022-09-05T15:02:45.054Z,33.17
2022-09-05T15:03:00.641Z,33.49
2022-09-05T15:05:50.450Z,33.78
2022-09-05T15:12:16.942Z,33.50
2022-09-05T15:12:23.741Z,33.28
2022-09-05T15:14:12.482Z,33.38
2022-09-05T15:16:45.869Z,33.51
2022-09-05T15:20:05.126Z,33.42
2022-09-05T15:22:43.609Z,32.70
2022-09-05T15:25:19.170Z,32.01
2022-09-05T15:27:47.528Z,31.29
2022-09-05T15:30:36.037Z,30.65
2022-09-05T15:33:25.866Z,29.98
2022-09-05T15:36:06.743Z,29.57
2022-09-05T15:38:55.173Z,29.25
2022-09-05T15:41:25.959Z,28.90
2022-09-05T15:43:58.618Z,28.54
2022-09-05T15:46:49.905Z,28.42
2022-09-05T15:49:56.330Z,28.71
2022-09-05T15:52:26.149Z,28.86
2022-09-05T15:55:11.173Z,28.92
2022-09-05T15:57:49.798Z,28.67
2022-09-05T16:00:42.636Z,28.28
2022-09-05T16:06:36.353Z,27.95
2022-09-05T16:10:28.865Z,27.44
2022-09-05T16:10:48.540Z,27.26
2022-09-05T16:12:31.521Z,27.00
2022-09-05T16:17:10.065Z,26.63
2022-09-05T16:23:24.772Z,26.48
2022-09-05T16:23:34.525Z,26.46
2022-09-05T16:23:59.290Z,26.54
2022-09-05T16:26:32.319Z,26.68
2022-09-05T16:29:22.514Z,26.70
2022-09-05T16:32:07.552Z,26.72
2022-09-05T16:34:54.776Z,26.68
2022-09-05T16:37:39.560Z,26.57
2022-09-05T16:40:19.767Z,26.41
2022-09-05T16:42:56.848Z,26.16
2022-09-05T16:46:03.566Z,25.84
2022-09-05T16:48:44.423Z,25.54
2022-09-05T16:51:36.514Z,25.16
2022-09-05T16:54:49.864Z,24.94
2022-09-05T16:57:36.456Z,24.68
2022-09-05T17:00:08.937Z,24.44
2022-09-05T17:03:28.377Z,24.15
2022-09-05T17:06:45.497Z,23.90
2022-09-05T17:09:43.717Z,23.70
2022-09-05T17:12:23.637Z,23.38
2022-09-05T17:15:11.198Z,23.04
2022-09-05T17:18:20.652Z,22.70
2022-09-05T17:20:56.131Z,22.41
2022-09-05T17:29:18.295Z,22.20
2022-09-05T17:29:30.259Z,22.03
2022-09-05T17:32:57.117Z,21.40
2022-09-05T17:35:27.768Z,21.25
2022-09-05T17:38:32.207Z,21.04
2022-09-05T17:41:44.364Z,20.93
2022-09-05T17:44:19.661Z,20.76
2022-09-05T17:47:15.230Z,20.71
2022-09-05T17:49:47.854Z,20.65
2022-09-05T17:52:19.906Z,20.56
2022-09-05T17:54:59.763Z,20.48
2022-09-05T17:57:48.188Z,20.38
2022-09-05T18:00:48.952Z,20.28
2022-09-05T18:03:38.108Z,20.15
2022-09-05T18:06:20.030Z,20.04
2022-09-05T18:08:50.007Z,19.95
2022-09-05T18:11:26.256Z,19.88
2022-09-05T18:14:04.455Z,19.82
2022-09-05T18:16:40.026Z,19.68
2022-09-05T18:19:46.111Z,19.52
2022-09-05T18:22:47.145Z,19.38
2022-09-05T18:26:03.066Z,19.26
2022-09-05T18:28:53.632Z,19.05
2022-09-05T18:31:43.671Z,18.78
2022-09-05T18:34:16.700Z,18.62
2022-09-05T18:37:22.934Z,18.45
2022-09-05T18:40:36.478Z,18.20
2022-09-05T18:43:45.020Z,18.10
2022-09-05T18:46:47.914Z,17.99
2022-09-05T18:50:25.964Z,17.98
2022-09-05T18:53:25.128Z,17.97
2022-09-05T18:57:03.043Z,17.85
2022-09-05T18:59:52.324Z,17.83
2022-09-05T19:02:51.340Z,17.84
2022-09-05T19:05:46.681Z,17.67
2022-09-05T19:08:42.829Z,17.61
2022-09-05T19:11:52.694Z,17.47
2022-09-05T19:14:44.073Z,17.41
2022-09-05T19:17:32.073Z,17.38
2022-09-05T19:21:00.919Z,17.30
2022-09-05T19:23:46.192Z,17.24
2022-09-05T19:26:14.157Z,17.27
2022-09-05T19:36:47.282Z,17.29
2022-09-05T19:36:52.650Z,17.26
2022-09-05T19:37:04.780Z,17.08
2022-09-05T19:37:37.381Z,17.00
2022-09-05T19:47:31.172Z,16.92
2022-09-05T19:47:34.263Z,16.94
2022-09-05T19:47:38.380Z,16.76
2022-09-05T19:49:58.873Z,16.66
2022-09-05T19:52:28.273Z,16.67
2022-09-05T19:54:58.505Z,16.69
2022-09-05T19:57:28.070Z,16.74
2022-09-05T20:00:03.337Z,16.77
2022-09-05T20:02:38.016Z,16.76
2022-09-05T20:05:09.788Z,16.84
2022-09-05T20:07:49.796Z,16.85
2022-09-05T20:10:39.271Z,16.84
2022-09-05T20:13:28.934Z,16.86
2022-09-05T20:15:57.695Z,16.76
2022-09-05T20:18:42.764Z,16.69
2022-09-05T20:21:30.936Z,16.66
2022-09-05T20:24:01.253Z,16.63
2022-09-05T20:26:34.169Z,16.58
2022-09-05T20:29:05.107Z,16.54
2022-09-05T20:31:35.304Z,16.51
2022-09-05T20:36:11.779Z,16.49
2022-09-05T20:43:12.286Z,16.49
2022-09-05T20:43:24.417Z,16.47
2022-09-05T20:43:27.819Z,16.45
2022-09-05T20:46:41.962Z,16.43
2022-09-05T20:54:05.408Z,16.37
2022-09-05T20:54:22.768Z,16.29
2022-09-05T20:54:50.199Z,16.20
2022-09-05T20:57:30.800Z,16.17
2022-09-05T21:00:12.318Z,16.13
2022-09-05T21:03:01.053Z,16.13
2022-09-05T21:05:35.618Z,16.10
2022-09-05T21:08:44.111Z,16.06
2022-09-05T21:11:34.260Z,15.97
2022-09-05T21:14:20.975Z,15.90
2022-09-05T21:17:21.897Z,15.90
2022-09-05T21:20:10.680Z,15.91
2022-09-05T21:22:43.631Z,15.89
2022-09-05T21:25:44.144Z,15.79
2022-09-05T21:28:36.466Z,15.75
2022-09-05T21:31:14.636Z,15.77
2022-09-05T21:33:45.963Z,15.77
2022-09-05T21:36:16.289Z,15.81
2022-09-05T21:38:56.254Z,15.73
2022-09-05T21:41:24.394Z,15.72
2022-09-05T21:47:41.523Z,15.65
2022-09-05T21:47:47.980Z,15.50
2022-09-05T21:49:50.103Z,15.44
2022-09-05T21:52:20.811Z,15.44
2022-09-05T21:59:18.594Z,15.36
2022-09-05T21:59:20.519Z,15.32
2022-09-05T22:00:38.433Z,15.30
2022-09-05T22:03:14.893Z,15.25
2022-09-05T22:05:46.822Z,15.24
2022-09-05T22:08:25.225Z,15.19
2022-09-05T22:10:55.508Z,15.16
2022-09-05T22:13:47.703Z,15.09
2022-09-05T22:16:15.903Z,15.06
2022-09-05T22:18:51.383Z,15.06
2022-09-05T22:21:32.450Z,15.03
2022-09-05T22:24:15.258Z,15.03
2022-09-05T22:27:12.668Z,14.92
2022-09-05T22:29:42.314Z,14.93
2022-09-05T22:32:33.886Z,14.83
2022-09-05T22:35:27.449Z,14.79
2022-09-05T22:38:00.609Z,14.81
2022-09-05T22:40:44.053Z,14.75
2022-09-05T22:43:17.936Z,14.71
2022-09-05T22:46:09.862Z,14.65
2022-09-05T22:49:24.810Z,14.64
2022-09-05T22:51:57.050Z,14.52
2022-09-05T22:54:26.205Z,14.50
2022-09-05T22:56:59.140Z,14.49
2022-09-05T22:59:35.353Z,14.44
2022-09-05T23:02:14.331Z,14.38
2022-09-05T23:05:07.839Z,14.41
2022-09-05T23:08:08.076Z,14.36
2022-09-05T23:10:36.119Z,14.33
2022-09-05T23:13:11.635Z,14.30
2022-09-05T23:15:40.840Z,14.22
2022-09-05T23:18:15.088Z,14.16
2022-09-05T23:20:43.314Z,14.16
2022-09-05T23:23:12.011Z,14.11
2022-09-05T23:25:54.113Z,14.13
2022-09-05T23:28:26.327Z,14.09
2022-09-05T23:30:59.712Z,14.01
2022-09-05T23:33:27.169Z,13.95
2022-09-05T23:36:07.446Z,13.94
2022-09-05T23:38:35.690Z,13.91
2022-09-05T23:41:09.498Z,13.91
2022-09-05T23:43:36.483Z,13.86
2022-09-05T23:46:05.836Z,13.84
2022-09-05T23:48:32.998Z,13.81
2022-09-05T23:51:12.177Z,13.78
2022-09-05T23:53:41.947Z,13.76
2022-09-05T23:56:10.689Z,13.76
2022-09-05T23:58:39.136Z,13.71
